sensor_id;sensor_type;location;lat;lon;timestamp;P1;durP1;ratioP1;P2;durP2;ratioP2
42066;SDS011;27734;47.028;28.820;2023-09-19T00:00:40;14.73;;;8.10;;
42066;SDS011;27734;47.028;28.820;2023-09-19T00:03:30;16.67;;;8.60;;
42066;SDS011;27734;47.028;28.820;2023-09-19T00:05:58;16.95;;;8.45;;
42066;SDS011;27734;47.028;28.820;2023-09-19T00:08:27;19.83;;;8.77;;
42066;SDS011;27734;47.028;28.820;2023-09-19T00:10:56;14.57;;;8.40;;
42066;SDS011;27734;47.028;28.820;2023-09-19T00:13:31;17.97;;;9.07;;
42066;SDS011;27734;47.028;28.820;2023-09-19T00:16:00;18.57;;;9.20;;
42066;SDS011;27734;47.028;28.820;2023-09-19T00:18:35;19.23;;;8.63;;
42066;SDS011;27734;47.028;28.820;2023-09-19T00:21:03;18.30;;;8.77;;
42066;SDS011;27734;47.028;28.820;2023-09-19T00:23:32;17.43;;;8.87;;
42066;SDS011;27734;47.028;28.820;2023-09-19T00:26:01;16.40;;;8.90;;
42066;SDS011;27734;47.028;28.820;2023-09-19T00:28:30;16.03;;;8.47;;
42066;SDS011;27734;47.028;28.820;2023-09-19T00:30:59;15.40;;;8.40;;
42066;SDS011;27734;47.028;28.820;2023-09-19T00:33:28;18.30;;;8.77;;
42066;SDS011;27734;47.028;28.820;2023-09-19T00:35:57;16.23;;;8.67;;
42066;SDS011;27734;47.028;28.820;2023-09-19T00:38:26;17.03;;;9.03;;
42066;SDS011;27734;47.028;28.820;2023-09-19T00:40:55;14.20;;;8.07;;
42066;SDS011;27734;47.028;28.820;2023-09-19T00:43:24;16.17;;;9.67;;
42066;SDS011;27734;47.028;28.820;2023-09-19T00:45:56;18.27;;;8.30;;
42066;SDS011;27734;47.028;28.820;2023-09-19T00:48:28;17.12;;;9.05;;
42066;SDS011;27734;47.028;28.820;2023-09-19T00:50:58;18.87;;;9.60;;
42066;SDS011;27734;47.028;28.820;2023-09-19T00:53:31;18.85;;;9.65;;
42066;SDS011;27734;47.028;28.820;2023-09-19T00:56:01;16.87;;;9.17;;
42066;SDS011;27734;47.028;28.820;2023-09-19T00:58:32;15.10;;;9.03;;
42066;SDS011;27734;47.028;28.820;2023-09-19T01:01:02;17.90;;;9.10;;
42066;SDS011;27734;47.028;28.820;2023-09-19T01:03:36;17.60;;;8.87;;
42066;SDS011;27734;47.028;28.820;2023-09-19T01:06:05;16.77;;;9.17;;
42066;SDS011;27734;47.028;28.820;2023-09-19T01:08:35;17.17;;;8.80;;
42066;SDS011;27734;47.028;28.820;2023-09-19T01:11:06;17.23;;;9.77;;
42066;SDS011;27734;47.028;28.820;2023-09-19T01:13:44;16.10;;;9.23;;
42066;SDS011;27734;47.028;28.820;2023-09-19T01:16:22;17.67;;;9.30;;
42066;SDS011;27734;47.028;28.820;2023-09-19T01:19:05;16.70;;;9.13;;
42066;SDS011;27734;47.028;28.820;2023-09-19T01:21:54;16.90;;;9.23;;
42066;SDS011;27734;47.028;28.820;2023-09-19T01:24:49;18.17;;;9.73;;
42066;SDS011;27734;47.028;28.820;2023-09-19T01:27:58;16.27;;;9.47;;
42066;SDS011;27734;47.028;28.820;2023-09-19T01:30:43;23.03;;;10.77;;
42066;SDS011;27734;47.028;28.820;2023-09-19T01:33:13;22.60;;;11.30;;
42066;SDS011;27734;47.028;28.820;2023-09-19T01:35:43;18.97;;;10.23;;
42066;SDS011;27734;47.028;28.820;2023-09-19T01:38:12;20.87;;;10.93;;
42066;SDS011;27734;47.028;28.820;2023-09-19T01:40:42;18.60;;;10.70;;
42066;SDS011;27734;47.028;28.820;2023-09-19T01:43:17;19.37;;;10.77;;
42066;SDS011;27734;47.028;28.820;2023-09-19T01:45:52;19.87;;;9.97;;
42066;SDS011;27734;47.028;28.820;2023-09-19T01:48:29;17.17;;;10.03;;
42066;SDS011;27734;47.028;28.820;2023-09-19T01:51:05;20.33;;;10.33;;
42066;SDS011;27734;47.028;28.820;2023-09-19T01:53:35;19.80;;;10.45;;
42066;SDS011;27734;47.028;28.820;2023-09-19T01:56:08;19.77;;;11.00;;
42066;SDS011;27734;47.028;28.820;2023-09-19T01:58:45;19.87;;;10.80;;
42066;SDS011;27734;47.028;28.820;2023-09-19T02:01:18;18.83;;;10.90;;
42066;SDS011;27734;47.028;28.820;2023-09-19T02:03:52;19.87;;;10.70;;
42066;SDS011;27734;47.028;28.820;2023-09-19T02:06:23;19.77;;;11.10;;
42066;SDS011;27734;47.028;28.820;2023-09-19T02:08:54;23.07;;;11.73;;
42066;SDS011;27734;47.028;28.820;2023-09-19T02:11:23;20.33;;;11.23;;
42066;SDS011;27734;47.028;28.820;2023-09-19T02:13:51;20.37;;;11.93;;
42066;SDS011;27734;47.028;28.820;2023-09-19T02:16:21;20.53;;;10.83;;
42066;SDS011;27734;47.028;28.820;2023-09-19T02:18:49;24.70;;;11.47;;
42066;SDS011;27734;47.028;28.820;2023-09-19T02:21:18;19.47;;;10.73;;
42066;SDS011;27734;47.028;28.820;2023-09-19T02:23:48;19.83;;;11.17;;
42066;SDS011;27734;47.028;28.820;2023-09-19T02:26:18;20.03;;;11.90;;
42066;SDS011;27734;47.028;28.820;2023-09-19T02:28:48;19.67;;;10.63;;
42066;SDS011;27734;47.028;28.820;2023-09-19T02:31:16;20.80;;;11.80;;
42066;SDS011;27734;47.028;28.820;2023-09-19T02:33:45;22.37;;;11.67;;
42066;SDS011;27734;47.028;28.820;2023-09-19T02:36:15;19.37;;;10.97;;
42066;SDS011;27734;47.028;28.820;2023-09-19T02:38:44;25.80;;;11.90;;
42066;SDS011;27734;47.028;28.820;2023-09-19T02:41:13;21.20;;;10.80;;
42066;SDS011;27734;47.028;28.820;2023-09-19T02:43:42;20.10;;;11.03;;
42066;SDS011;27734;47.028;28.820;2023-09-19T02:46:10;21.00;;;11.03;;
42066;SDS011;27734;47.028;28.820;2023-09-19T02:48:40;22.47;;;12.17;;
42066;SDS011;27734;47.028;28.820;2023-09-19T02:51:09;25.23;;;12.83;;
42066;SDS011;27734;47.028;28.820;2023-09-19T02:53:37;24.73;;;12.23;;
42066;SDS011;27734;47.028;28.820;2023-09-19T02:56:06;26.93;;;13.17;;
42066;SDS011;27734;47.028;28.820;2023-09-19T02:58:38;27.33;;;12.67;;
42066;SDS011;27734;47.028;28.820;2023-09-19T03:01:10;24.67;;;13.00;;
42066;SDS011;27734;47.028;28.820;2023-09-19T03:03:40;25.57;;;13.47;;
42066;SDS011;27734;47.028;28.820;2023-09-19T03:06:08;24.50;;;13.47;;
42066;SDS011;27734;47.028;28.820;2023-09-19T03:08:37;26.07;;;13.40;;
42066;SDS011;27734;47.028;28.820;2023-09-19T03:11:09;24.53;;;13.27;;
42066;SDS011;27734;47.028;28.820;2023-09-19T03:13:39;24.43;;;13.57;;
42066;SDS011;27734;47.028;28.820;2023-09-19T03:16:09;25.83;;;13.70;;
42066;SDS011;27734;47.028;28.820;2023-09-19T03:18:37;27.93;;;13.63;;
42066;SDS011;27734;47.028;28.820;2023-09-19T03:21:06;28.57;;;13.93;;
42066;SDS011;27734;47.028;28.820;2023-09-19T03:23:35;27.10;;;13.53;;
42066;SDS011;27734;47.028;28.820;2023-09-19T03:26:05;24.60;;;13.57;;
42066;SDS011;27734;47.028;28.820;2023-09-19T03:28:35;26.90;;;13.03;;
42066;SDS011;27734;47.028;28.820;2023-09-19T03:31:05;27.63;;;13.17;;
42066;SDS011;27734;47.028;28.820;2023-09-19T03:33:36;25.43;;;12.63;;
42066;SDS011;27734;47.028;28.820;2023-09-19T03:36:05;21.93;;;12.33;;
42066;SDS011;27734;47.028;28.820;2023-09-19T03:38:34;22.57;;;12.03;;
42066;SDS011;27734;47.028;28.820;2023-09-19T03:41:03;24.63;;;12.47;;
42066;SDS011;27734;47.028;28.820;2023-09-19T03:43:34;22.90;;;12.33;;
42066;SDS011;27734;47.028;28.820;2023-09-19T03:46:03;23.73;;;12.30;;
42066;SDS011;27734;47.028;28.820;2023-09-19T03:48:32;23.20;;;11.73;;
42066;SDS011;27734;47.028;28.820;2023-09-19T03:51:01;23.47;;;11.77;;
42066;SDS011;27734;47.028;28.820;2023-09-19T03:53:30;20.27;;;11.50;;
42066;SDS011;27734;47.028;28.820;2023-09-19T03:55:58;21.50;;;12.40;;
42066;SDS011;27734;47.028;28.820;2023-09-19T03:58:29;23.20;;;11.90;;
42066;SDS011;27734;47.028;28.820;2023-09-19T04:00:57;24.97;;;12.67;;
42066;SDS011;27734;47.028;28.820;2023-09-19T04:03:27;24.17;;;12.27;;
42066;SDS011;27734;47.028;28.820;2023-09-19T04:06:01;21.77;;;11.13;;
42066;SDS011;27734;47.028;28.820;2023-09-19T04:08:30;22.37;;;12.30;;
42066;SDS011;27734;47.028;28.820;2023-09-19T04:10:59;23.43;;;11.80;;
42066;SDS011;27734;47.028;28.820;2023-09-19T04:13:27;21.97;;;12.00;;
42066;SDS011;27734;47.028;28.820;2023-09-19T04:15:56;24.83;;;12.27;;
42066;SDS011;27734;47.028;28.820;2023-09-19T04:18:25;23.43;;;12.23;;
42066;SDS011;27734;47.028;28.820;2023-09-19T04:20:54;20.77;;;12.03;;
42066;SDS011;27734;47.028;28.820;2023-09-19T04:23:22;21.03;;;11.67;;
42066;SDS011;27734;47.028;28.820;2023-09-19T04:25:52;21.43;;;12.23;;
42066;SDS011;27734;47.028;28.820;2023-09-19T04:28:21;26.67;;;11.70;;
42066;SDS011;27734;47.028;28.820;2023-09-19T04:30:50;20.65;;;11.20;;
42066;SDS011;27734;47.028;28.820;2023-09-19T04:33:18;22.93;;;11.17;;
42066;SDS011;27734;47.028;28.820;2023-09-19T04:35:49;20.80;;;11.77;;
42066;SDS011;27734;47.028;28.820;2023-09-19T04:38:18;19.43;;;10.20;;
42066;SDS011;27734;47.028;28.820;2023-09-19T04:40:47;20.77;;;10.93;;
42066;SDS011;27734;47.028;28.820;2023-09-19T04:43:16;20.37;;;11.50;;
42066;SDS011;27734;47.028;28.820;2023-09-19T04:45:48;21.60;;;11.37;;
42066;SDS011;27734;47.028;28.820;2023-09-19T04:48:18;22.37;;;11.17;;
42066;SDS011;27734;47.028;28.820;2023-09-19T04:50:49;21.60;;;10.73;;
42066;SDS011;27734;47.028;28.820;2023-09-19T04:53:20;23.37;;;10.87;;
42066;SDS011;27734;47.028;28.820;2023-09-19T04:55:51;20.43;;;11.40;;
42066;SDS011;27734;47.028;28.820;2023-09-19T04:58:22;20.17;;;11.17;;
42066;SDS011;27734;47.028;28.820;2023-09-19T05:00:51;23.37;;;11.80;;
42066;SDS011;27734;47.028;28.820;2023-09-19T05:03:20;22.17;;;10.77;;
42066;SDS011;27734;47.028;28.820;2023-09-19T05:05:50;20.93;;;10.87;;
42066;SDS011;27734;47.028;28.820;2023-09-19T05:08:18;20.53;;;11.33;;
42066;SDS011;27734;47.028;28.820;2023-09-19T05:10:49;21.40;;;11.10;;
42066;SDS011;27734;47.028;28.820;2023-09-19T05:13:17;22.57;;;11.53;;
42066;SDS011;27734;47.028;28.820;2023-09-19T05:15:46;20.25;;;10.20;;
42066;SDS011;27734;47.028;28.820;2023-09-19T05:18:15;21.73;;;10.43;;
42066;SDS011;27734;47.028;28.820;2023-09-19T05:20:44;22.35;;;11.20;;
42066;SDS011;27734;47.028;28.820;2023-09-19T05:23:13;22.43;;;11.33;;
42066;SDS011;27734;47.028;28.820;2023-09-19T05:25:42;23.93;;;11.13;;
42066;SDS011;27734;47.028;28.820;2023-09-19T05:28:11;20.47;;;10.93;;
42066;SDS011;27734;47.028;28.820;2023-09-19T05:30:41;19.80;;;10.17;;
42066;SDS011;27734;47.028;28.820;2023-09-19T05:33:12;19.30;;;10.83;;
42066;SDS011;27734;47.028;28.820;2023-09-19T05:35:41;22.60;;;10.80;;
42066;SDS011;27734;47.028;28.820;2023-09-19T05:38:10;20.47;;;10.73;;
42066;SDS011;27734;47.028;28.820;2023-09-19T05:40:42;19.23;;;11.03;;
42066;SDS011;27734;47.028;28.820;2023-09-19T05:43:14;21.57;;;11.50;;
42066;SDS011;27734;47.028;28.820;2023-09-19T05:45:46;27.47;;;11.43;;
42066;SDS011;27734;47.028;28.820;2023-09-19T05:48:23;23.77;;;11.20;;
42066;SDS011;27734;47.028;28.820;2023-09-19T05:50:54;21.40;;;10.87;;
42066;SDS011;27734;47.028;28.820;2023-09-19T05:53:38;19.77;;;10.47;;
42066;SDS011;27734;47.028;28.820;2023-09-19T05:56:22;21.57;;;10.50;;
42066;SDS011;27734;47.028;28.820;2023-09-19T05:58:53;24.65;;;10.65;;
42066;SDS011;27734;47.028;28.820;2023-09-19T06:01:22;24.70;;;10.93;;
42066;SDS011;27734;47.028;28.820;2023-09-19T06:03:59;22.67;;;11.30;;
42066;SDS011;27734;47.028;28.820;2023-09-19T06:06:29;19.77;;;9.90;;
42066;SDS011;27734;47.028;28.820;2023-09-19T06:09:06;22.77;;;10.43;;
42066;SDS011;27734;47.028;28.820;2023-09-19T06:11:37;21.53;;;10.33;;
42066;SDS011;27734;47.028;28.820;2023-09-19T06:18:10;17.17;;;8.67;;
42066;SDS011;27734;47.028;28.820;2023-09-19T06:21:22;18.30;;;8.03;;
42066;SDS011;27734;47.028;28.820;2023-09-19T06:23:54;14.33;;;7.77;;
42066;SDS011;27734;47.028;28.820;2023-09-19T06:26:29;15.10;;;7.50;;
42066;SDS011;27734;47.028;28.820;2023-09-19T06:29:02;13.65;;;7.30;;
42066;SDS011;27734;47.028;28.820;2023-09-19T06:31:39;14.87;;;7.70;;
42066;SDS011;27734;47.028;28.820;2023-09-19T06:34:29;14.50;;;6.93;;
42066;SDS011;27734;47.028;28.820;2023-09-19T06:37:08;14.65;;;7.30;;
42066;SDS011;27734;47.028;28.820;2023-09-19T06:40:22;13.27;;;7.23;;
42066;SDS011;27734;47.028;28.820;2023-09-19T06:42:55;16.00;;;7.57;;
42066;SDS011;27734;47.028;28.820;2023-09-19T06:45:28;13.10;;;7.30;;
42066;SDS011;27734;47.028;28.820;2023-09-19T06:51:27;15.60;;;7.97;;
42066;SDS011;27734;47.028;28.820;2023-09-19T06:57:15;10.70;;;6.13;;
42066;SDS011;27734;47.028;28.820;2023-09-19T06:59:50;14.83;;;6.87;;
42066;SDS011;27734;47.028;28.820;2023-09-19T07:02:54;10.77;;;6.57;;
42066;SDS011;27734;47.028;28.820;2023-09-19T07:08:23;16.17;;;6.27;;
42066;SDS011;27734;47.028;28.820;2023-09-19T07:10:56;11.93;;;6.37;;
42066;SDS011;27734;47.028;28.820;2023-09-19T07:13:36;11.33;;;6.13;;
42066;SDS011;27734;47.028;28.820;2023-09-19T07:16:20;13.23;;;6.00;;
42066;SDS011;27734;47.028;28.820;2023-09-19T07:19:46;11.10;;;5.53;;
42066;SDS011;27734;47.028;28.820;2023-09-19T07:22:53;10.27;;;5.30;;
42066;SDS011;27734;47.028;28.820;2023-09-19T07:25:45;9.37;;;5.70;;
42066;SDS011;27734;47.028;28.820;2023-09-19T07:28:20;11.60;;;5.50;;
42066;SDS011;27734;47.028;28.820;2023-09-19T07:41:05;9.37;;;5.20;;
42066;SDS011;27734;47.028;28.820;2023-09-19T07:44:06;14.07;;;5.50;;
42066;SDS011;27734;47.028;28.820;2023-09-19T07:47:07;11.73;;;5.40;;
42066;SDS011;27734;47.028;28.820;2023-09-19T07:49:39;9.23;;;5.80;;
42066;SDS011;27734;47.028;28.820;2023-09-19T07:52:15;12.20;;;5.67;;
42066;SDS011;27734;47.028;28.820;2023-09-19T07:55:09;12.20;;;5.60;;
42066;SDS011;27734;47.028;28.820;2023-09-19T07:57:43;12.67;;;5.30;;
42066;SDS011;27734;47.028;28.820;2023-09-19T08:00:21;10.70;;;5.33;;
42066;SDS011;27734;47.028;28.820;2023-09-19T08:05:33;9.70;;;5.05;;
42066;SDS011;27734;47.028;28.820;2023-09-19T08:08:04;12.07;;;5.53;;
42066;SDS011;27734;47.028;28.820;2023-09-19T08:10:35;8.90;;;5.20;;
42066;SDS011;27734;47.028;28.820;2023-09-19T08:13:23;9.63;;;5.30;;
42066;SDS011;27734;47.028;28.820;2023-09-19T08:18:24;10.67;;;5.17;;
42066;SDS011;27734;47.028;28.820;2023-09-19T08:20:57;11.53;;;5.23;;
42066;SDS011;27734;47.028;28.820;2023-09-19T08:23:27;15.95;;;5.65;;
42066;SDS011;27734;47.028;28.820;2023-09-19T08:25:58;10.33;;;5.47;;
42066;SDS011;27734;47.028;28.820;2023-09-19T08:28:31;11.00;;;5.60;;
42066;SDS011;27734;47.028;28.820;2023-09-19T08:31:02;9.97;;;5.30;;
42066;SDS011;27734;47.028;28.820;2023-09-19T08:33:35;9.70;;;5.23;;
42066;SDS011;27734;47.028;28.820;2023-09-19T08:36:19;10.37;;;5.30;;
42066;SDS011;27734;47.028;28.820;2023-09-19T08:38:53;7.73;;;4.70;;
42066;SDS011;27734;47.028;28.820;2023-09-19T08:41:29;10.43;;;4.77;;
42066;SDS011;27734;47.028;28.820;2023-09-19T08:44:02;6.03;;;4.57;;
42066;SDS011;27734;47.028;28.820;2023-09-19T08:46:41;6.60;;;4.40;;
42066;SDS011;27734;47.028;28.820;2023-09-19T08:49:16;7.53;;;4.63;;
42066;SDS011;27734;47.028;28.820;2023-09-19T08:52:01;8.57;;;4.50;;
42066;SDS011;27734;47.028;28.820;2023-09-19T08:54:38;8.83;;;4.50;;
42066;SDS011;27734;47.028;28.820;2023-09-19T08:57:20;8.30;;;4.30;;
42066;SDS011;27734;47.028;28.820;2023-09-19T09:00:04;9.03;;;4.67;;
42066;SDS011;27734;47.028;28.820;2023-09-19T09:02:41;11.10;;;4.70;;
42066;SDS011;27734;47.028;28.820;2023-09-19T09:05:19;10.47;;;4.77;;
42066;SDS011;27734;47.028;28.820;2023-09-19T09:07:50;11.12;;;4.62;;
42066;SDS011;27734;47.028;28.820;2023-09-19T09:10:37;8.90;;;4.80;;
42066;SDS011;27734;47.028;28.820;2023-09-19T09:13:25;8.13;;;4.87;;
42066;SDS011;27734;47.028;28.820;2023-09-19T09:15:57;8.80;;;4.37;;
42066;SDS011;27734;47.028;28.820;2023-09-19T09:18:38;6.57;;;4.30;;
42066;SDS011;27734;47.028;28.820;2023-09-19T09:21:32;10.80;;;4.70;;
42066;SDS011;27734;47.028;28.820;2023-09-19T09:24:27;5.97;;;4.23;;
42066;SDS011;27734;47.028;28.820;2023-09-19T09:27:11;10.53;;;4.40;;
42066;SDS011;27734;47.028;28.820;2023-09-19T09:29:55;8.53;;;4.40;;
42066;SDS011;27734;47.028;28.820;2023-09-19T09:32:33;6.00;;;3.90;;
42066;SDS011;27734;47.028;28.820;2023-09-19T09:35:07;5.93;;;3.80;;
42066;SDS011;27734;47.028;28.820;2023-09-19T09:38:01;5.63;;;3.80;;
42066;SDS011;27734;47.028;28.820;2023-09-19T09:40:46;7.23;;;4.13;;
42066;SDS011;27734;47.028;28.820;2023-09-19T09:43:35;7.80;;;3.90;;
42066;SDS011;27734;47.028;28.820;2023-09-19T09:46:20;8.43;;;3.93;;
42066;SDS011;27734;47.028;28.820;2023-09-19T09:49:12;8.97;;;4.00;;
42066;SDS011;27734;47.028;28.820;2023-09-19T09:51:59;7.27;;;3.90;;
42066;SDS011;27734;47.028;28.820;2023-09-19T09:57:31;6.07;;;3.53;;
42066;SDS011;27734;47.028;28.820;2023-09-19T10:00:02;7.87;;;3.80;;
42066;SDS011;27734;47.028;28.820;2023-09-19T10:02:47;7.65;;;4.05;;
42066;SDS011;27734;47.028;28.820;2023-09-19T10:05:19;5.77;;;3.90;;
42066;SDS011;27734;47.028;28.820;2023-09-19T10:07:57;5.67;;;4.00;;
42066;SDS011;27734;47.028;28.820;2023-09-19T10:15:28;6.73;;;3.57;;
42066;SDS011;27734;47.028;28.820;2023-09-19T10:18:18;10.97;;;4.00;;
42066;SDS011;27734;47.028;28.820;2023-09-19T10:20:50;6.00;;;3.73;;
42066;SDS011;27734;47.028;28.820;2023-09-19T10:23:20;6.27;;;3.67;;
42066;SDS011;27734;47.028;28.820;2023-09-19T10:25:53;9.00;;;3.87;;
42066;SDS011;27734;47.028;28.820;2023-09-19T10:28:24;10.97;;;3.60;;
42066;SDS011;27734;47.028;28.820;2023-09-19T10:30:59;8.47;;;4.27;;
42066;SDS011;27734;47.028;28.820;2023-09-19T10:33:32;8.80;;;3.80;;
42066;SDS011;27734;47.028;28.820;2023-09-19T10:36:09;8.70;;;3.60;;
42066;SDS011;27734;47.028;28.820;2023-09-19T10:38:44;6.17;;;3.50;;
42066;SDS011;27734;47.028;28.820;2023-09-19T10:41:27;5.57;;;3.40;;
42066;SDS011;27734;47.028;28.820;2023-09-19T10:44:04;12.27;;;4.17;;
42066;SDS011;27734;47.028;28.820;2023-09-19T10:46:36;9.00;;;3.70;;
42066;SDS011;27734;47.028;28.820;2023-09-19T10:49:08;11.30;;;4.27;;
42066;SDS011;27734;47.028;28.820;2023-09-19T10:51:41;3.70;;;3.10;;
42066;SDS011;27734;47.028;28.820;2023-09-19T10:54:20;7.30;;;3.53;;
42066;SDS011;27734;47.028;28.820;2023-09-19T10:56:56;6.90;;;3.50;;
42066;SDS011;27734;47.028;28.820;2023-09-19T10:59:39;8.45;;;3.50;;
42066;SDS011;27734;47.028;28.820;2023-09-19T11:06:03;5.17;;;3.20;;
42066;SDS011;27734;47.028;28.820;2023-09-19T11:11:50;10.10;;;3.73;;
42066;SDS011;27734;47.028;28.820;2023-09-19T11:14:39;11.00;;;4.23;;
42066;SDS011;27734;47.028;28.820;2023-09-19T11:20:29;9.07;;;3.83;;
42066;SDS011;27734;47.028;28.820;2023-09-19T11:26:40;8.33;;;4.10;;
42066;SDS011;27734;47.028;28.820;2023-09-19T11:29:26;8.17;;;3.90;;
42066;SDS011;27734;47.028;28.820;2023-09-19T11:32:12;10.17;;;3.90;;
42066;SDS011;27734;47.028;28.820;2023-09-19T11:35:07;7.50;;;3.90;;
42066;SDS011;27734;47.028;28.820;2023-09-19T11:47:29;8.80;;;3.70;;
42066;SDS011;27734;47.028;28.820;2023-09-19T11:50:11;8.43;;;4.10;;
42066;SDS011;27734;47.028;28.820;2023-09-19T11:53:23;7.63;;;3.80;;
42066;SDS011;27734;47.028;28.820;2023-09-19T11:56:15;8.40;;;3.77;;
42066;SDS011;27734;47.028;28.820;2023-09-19T12:02:01;7.33;;;4.10;;
42066;SDS011;27734;47.028;28.820;2023-09-19T12:05:02;5.47;;;3.43;;
42066;SDS011;27734;47.028;28.820;2023-09-19T12:07:45;7.60;;;3.60;;
42066;SDS011;27734;47.028;28.820;2023-09-19T12:10:29;9.63;;;3.90;;
42066;SDS011;27734;47.028;28.820;2023-09-19T12:13:00;7.17;;;3.70;;
42066;SDS011;27734;47.028;28.820;2023-09-19T12:15:40;6.40;;;3.40;;
42066;SDS011;27734;47.028;28.820;2023-09-19T12:18:26;7.30;;;3.77;;
42066;SDS011;27734;47.028;28.820;2023-09-19T12:21:05;7.67;;;3.95;;
42066;SDS011;27734;47.028;28.820;2023-09-19T12:24:14;6.57;;;4.00;;
42066;SDS011;27734;47.028;28.820;2023-09-19T12:28:07;11.10;;;4.25;;
42066;SDS011;27734;47.028;28.820;2023-09-19T12:31:07;7.80;;;4.43;;
42066;SDS011;27734;47.028;28.820;2023-09-19T12:33:38;5.40;;;3.13;;
42066;SDS011;27734;47.028;28.820;2023-09-19T12:39:28;7.20;;;3.70;;
42066;SDS011;27734;47.028;28.820;2023-09-19T12:42:28;7.07;;;3.73;;
42066;SDS011;27734;47.028;28.820;2023-09-19T12:45:16;8.63;;;3.40;;
42066;SDS011;27734;47.028;28.820;2023-09-19T12:51:09;8.13;;;4.00;;
42066;SDS011;27734;47.028;28.820;2023-09-19T12:54:11;7.73;;;3.87;;
42066;SDS011;27734;47.028;28.820;2023-09-19T12:57:09;8.60;;;4.03;;
42066;SDS011;27734;47.028;28.820;2023-09-19T13:00:13;8.27;;;3.87;;
42066;SDS011;27734;47.028;28.820;2023-09-19T13:03:28;7.97;;;4.00;;
42066;SDS011;27734;47.028;28.820;2023-09-19T13:12:39;9.57;;;4.13;;
42066;SDS011;27734;47.028;28.820;2023-09-19T13:15:26;8.33;;;3.90;;
42066;SDS011;27734;47.028;28.820;2023-09-19T13:18:27;7.47;;;3.87;;
42066;SDS011;27734;47.028;28.820;2023-09-19T13:21:06;10.67;;;4.20;;
42066;SDS011;27734;47.028;28.820;2023-09-19T13:23:40;7.00;;;4.10;;
42066;SDS011;27734;47.028;28.820;2023-09-19T13:26:38;13.17;;;4.30;;
42066;SDS011;27734;47.028;28.820;2023-09-19T13:29:09;10.03;;;3.93;;
42066;SDS011;27734;47.028;28.820;2023-09-19T13:31:46;8.33;;;3.90;;
42066;SDS011;27734;47.028;28.820;2023-09-19T13:34:16;7.30;;;4.17;;
42066;SDS011;27734;47.028;28.820;2023-09-19T13:36:49;13.28;;;4.28;;
42066;SDS011;27734;47.028;28.820;2023-09-19T13:39:47;10.00;;;4.20;;
42066;SDS011;27734;47.028;28.820;2023-09-19T13:42:17;9.97;;;4.30;;
42066;SDS011;27734;47.028;28.820;2023-09-19T13:44:49;8.17;;;4.20;;
42066;SDS011;27734;47.028;28.820;2023-09-19T13:47:24;9.10;;;4.28;;
42066;SDS011;27734;47.028;28.820;2023-09-19T13:50:11;11.57;;;3.83;;
42066;SDS011;27734;47.028;28.820;2023-09-19T13:52:45;10.07;;;4.30;;
42066;SDS011;27734;47.028;28.820;2023-09-19T13:55:25;10.13;;;4.10;;
42066;SDS011;27734;47.028;28.820;2023-09-19T13:58:00;6.80;;;3.60;;
42066;SDS011;27734;47.028;28.820;2023-09-19T14:00:29;9.87;;;4.10;;
42066;SDS011;27734;47.028;28.820;2023-09-19T14:03:02;10.25;;;4.05;;
42066;SDS011;27734;47.028;28.820;2023-09-19T14:05:32;8.20;;;3.87;;
42066;SDS011;27734;47.028;28.820;2023-09-19T14:08:01;13.60;;;4.07;;
42066;SDS011;27734;47.028;28.820;2023-09-19T14:10:31;8.27;;;3.80;;
42066;SDS011;27734;47.028;28.820;2023-09-19T14:13:00;12.47;;;4.30;;
42066;SDS011;27734;47.028;28.820;2023-09-19T14:18:06;12.30;;;4.30;;
42066;SDS011;27734;47.028;28.820;2023-09-19T14:20:55;9.17;;;3.90;;
42066;SDS011;27734;47.028;28.820;2023-09-19T14:23:28;9.17;;;4.20;;
42066;SDS011;27734;47.028;28.820;2023-09-19T14:26:10;12.25;;;3.80;;
42066;SDS011;27734;47.028;28.820;2023-09-19T14:28:39;10.87;;;3.90;;
42066;SDS011;27734;47.028;28.820;2023-09-19T14:31:09;10.77;;;4.00;;
42066;SDS011;27734;47.028;28.820;2023-09-19T14:33:39;8.30;;;3.80;;
42066;SDS011;27734;47.028;28.820;2023-09-19T14:36:09;9.13;;;3.77;;
42066;SDS011;27734;47.028;28.820;2023-09-19T14:38:38;11.93;;;4.00;;
42066;SDS011;27734;47.028;28.820;2023-09-19T14:41:07;12.63;;;3.87;;
42066;SDS011;27734;47.028;28.820;2023-09-19T14:43:36;7.20;;;3.67;;
42066;SDS011;27734;47.028;28.820;2023-09-19T14:46:06;7.23;;;3.50;;
42066;SDS011;27734;47.028;28.820;2023-09-19T14:48:37;6.27;;;3.23;;
42066;SDS011;27734;47.028;28.820;2023-09-19T14:51:06;6.00;;;3.60;;
42066;SDS011;27734;47.028;28.820;2023-09-19T14:53:36;10.53;;;3.47;;
42066;SDS011;27734;47.028;28.820;2023-09-19T14:56:05;5.90;;;3.30;;
42066;SDS011;27734;47.028;28.820;2023-09-19T14:58:34;9.90;;;3.57;;
42066;SDS011;27734;47.028;28.820;2023-09-19T15:01:03;12.97;;;4.10;;
42066;SDS011;27734;47.028;28.820;2023-09-19T15:03:33;6.07;;;3.50;;
42066;SDS011;27734;47.028;28.820;2023-09-19T15:06:02;9.03;;;3.40;;
42066;SDS011;27734;47.028;28.820;2023-09-19T15:08:32;8.07;;;3.83;;
42066;SDS011;27734;47.028;28.820;2023-09-19T15:11:01;13.57;;;4.10;;
42066;SDS011;27734;47.028;28.820;2023-09-19T15:13:31;10.60;;;3.60;;
42066;SDS011;27734;47.028;28.820;2023-09-19T15:16:00;7.20;;;3.40;;
42066;SDS011;27734;47.028;28.820;2023-09-19T15:18:29;9.47;;;3.90;;
42066;SDS011;27734;47.028;28.820;2023-09-19T15:21:00;8.40;;;3.40;;
42066;SDS011;27734;47.028;28.820;2023-09-19T15:23:30;12.57;;;3.80;;
42066;SDS011;27734;47.028;28.820;2023-09-19T15:26:01;9.13;;;4.17;;
42066;SDS011;27734;47.028;28.820;2023-09-19T15:28:30;7.93;;;3.37;;
42066;SDS011;27734;47.028;28.820;2023-09-19T15:30:59;8.90;;;3.55;;
42066;SDS011;27734;47.028;28.820;2023-09-19T15:33:28;6.93;;;3.60;;
42066;SDS011;27734;47.028;28.820;2023-09-19T15:36:01;7.30;;;3.87;;
42066;SDS011;27734;47.028;28.820;2023-09-19T15:38:31;10.55;;;3.75;;
42066;SDS011;27734;47.028;28.820;2023-09-19T15:41:14;9.13;;;3.77;;
42066;SDS011;27734;47.028;28.820;2023-09-19T15:43:43;7.07;;;3.70;;
42066;SDS011;27734;47.028;28.820;2023-09-19T15:46:11;7.70;;;3.60;;
42066;SDS011;27734;47.028;28.820;2023-09-19T15:48:40;9.33;;;3.70;;
42066;SDS011;27734;47.028;28.820;2023-09-19T15:51:09;7.20;;;3.70;;
42066;SDS011;27734;47.028;28.820;2023-09-19T15:53:41;9.57;;;3.53;;
42066;SDS011;27734;47.028;28.820;2023-09-19T15:58:40;12.30;;;4.00;;
42066;SDS011;27734;47.028;28.820;2023-09-19T16:01:08;9.00;;;3.87;;
42066;SDS011;27734;47.028;28.820;2023-09-19T16:03:37;7.20;;;3.87;;
42066;SDS011;27734;47.028;28.820;2023-09-19T16:06:10;9.23;;;4.07;;
42066;SDS011;27734;47.028;28.820;2023-09-19T16:11:08;12.53;;;3.90;;
42066;SDS011;27734;47.028;28.820;2023-09-19T16:13:37;11.40;;;3.73;;
42066;SDS011;27734;47.028;28.820;2023-09-19T16:16:07;11.60;;;3.90;;
42066;SDS011;27734;47.028;28.820;2023-09-19T16:18:39;7.33;;;3.90;;
42066;SDS011;27734;47.028;28.820;2023-09-19T16:21:07;9.50;;;3.93;;
42066;SDS011;27734;47.028;28.820;2023-09-19T16:23:36;5.77;;;3.60;;
42066;SDS011;27734;47.028;28.820;2023-09-19T16:26:05;13.70;;;4.07;;
42066;SDS011;27734;47.028;28.820;2023-09-19T16:28:35;7.60;;;4.10;;
42066;SDS011;27734;47.028;28.820;2023-09-19T16:31:05;9.43;;;3.63;;
42066;SDS011;27734;47.028;28.820;2023-09-19T16:33:35;9.07;;;4.03;;